sensor_id;sensor_type;location;lat;lon;timestamp;pressure;altitude;pressure_sealevel;temperature;humidity
54948;BME280;41113;41.882;12.530;2023-10-08T00:00:49;101770.53;;;19.74;78.33
54948;BME280;41113;41.882;12.530;2023-10-08T00:03:14;101777.00;;;19.73;78.15
54948;BME280;41113;41.882;12.530;2023-10-08T00:05:40;101785.19;;;19.73;78.44
54948;BME280;41113;41.882;12.530;2023-10-08T00:08:06;101771.22;;;19.68;78.54
54948;BME280;41113;41.882;12.530;2023-10-08T00:10:35;101758.94;;;19.64;78.58
54948;BME280;41113;41.882;12.530;2023-10-08T00:13:02;101771.56;;;19.65;78.95
54948;BME280;41113;41.882;12.530;2023-10-08T00:15:28;101761.34;;;19.67;78.83
54948;BME280;41113;41.882;12.530;2023-10-08T00:17:53;101756.56;;;19.69;78.70
54948;BME280;41113;41.882;12.530;2023-10-08T00:20:19;101758.59;;;19.67;78.69
54948;BME280;41113;41.882;12.530;2023-10-08T00:22:51;101765.59;;;19.61;78.69
54948;BME280;41113;41.882;12.530;2023-10-08T00:25:20;101760.66;;;19.56;78.94
54948;BME280;41113;41.882;12.530;2023-10-08T00:27:45;101757.25;;;19.54;78.75
54948;BME280;41113;41.882;12.530;2023-10-08T00:30:14;101754.69;;;19.53;79.17
54948;BME280;41113;41.882;12.530;2023-10-08T00:32:43;101757.84;;;19.48;79.16
54948;BME280;41113;41.882;12.530;2023-10-08T00:35:09;101761.78;;;19.46;79.44
54948;BME280;41113;41.882;12.530;2023-10-08T00:37:39;101759.91;;;19.46;79.43
54948;BME280;41113;41.882;12.530;2023-10-08T00:40:05;101755.69;;;19.52;79.46
54948;BME280;41113;41.882;12.530;2023-10-08T00:42:37;101763.38;;;19.56;79.37
54948;BME280;41113;41.882;12.530;2023-10-08T00:45:02;101757.34;;;19.45;79.81
54948;BME280;41113;41.882;12.530;2023-10-08T00:47:30;101760.91;;;19.45;80.01
54948;BME280;41113;41.882;12.530;2023-10-08T00:49:59;101761.25;;;19.50;79.88
54948;BME280;41113;41.882;12.530;2023-10-08T00:52:35;101753.50;;;19.64;79.62
54948;BME280;41113;41.882;12.530;2023-10-08T00:55:25;101753.84;;;19.61;80.20
54948;BME280;41113;41.882;12.530;2023-10-08T00:57:55;101757.25;;;19.63;80.06
54948;BME280;41113;41.882;12.530;2023-10-08T01:00:22;101761.13;;;19.52;80.49
54948;BME280;41113;41.882;12.530;2023-10-08T01:02:48;101761.44;;;19.41;81.33
54948;BME280;41113;41.882;12.530;2023-10-08T01:05:20;101749.34;;;19.35;81.45
54948;BME280;41113;41.882;12.530;2023-10-08T01:07:49;101754.09;;;19.33;82.06
54948;BME280;41113;41.882;12.530;2023-10-08T01:10:16;101753.59;;;19.38;82.01
54948;BME280;41113;41.882;12.530;2023-10-08T01:12:45;101755.31;;;19.39;81.86
54948;BME280;41113;41.882;12.530;2023-10-08T01:15:31;101755.13;;;19.40;81.77
54948;BME280;41113;41.882;12.530;2023-10-08T01:18:00;101749.69;;;19.32;82.36
54948;BME280;41113;41.882;12.530;2023-10-08T01:20:29;101751.03;;;19.36;82.08
54948;BME280;41113;41.882;12.530;2023-10-08T01:22:59;101754.44;;;19.30;82.30
54948;BME280;41113;41.882;12.530;2023-10-08T01:25:28;101753.09;;;19.42;81.82
54948;BME280;41113;41.882;12.530;2023-10-08T01:27:57;101747.03;;;19.56;80.40
54948;BME280;41113;41.882;12.530;2023-10-08T01:30:43;101744.97;;;19.58;79.90
54948;BME280;41113;41.882;12.530;2023-10-08T01:33:15;101734.06;;;19.58;79.71
54948;BME280;41113;41.882;12.530;2023-10-08T01:35:42;101740.16;;;19.36;80.63
54948;BME280;41113;41.882;12.530;2023-10-08T01:38:08;101743.22;;;19.41;80.75
54948;BME280;41113;41.882;12.530;2023-10-08T01:40:38;101738.44;;;19.43;80.36
54948;BME280;41113;41.882;12.530;2023-10-08T01:43:03;101734.50;;;19.21;81.22
54948;BME280;41113;41.882;12.530;2023-10-08T01:45:30;101731.22;;;19.02;82.14
54948;BME280;41113;41.882;12.530;2023-10-08T01:47:56;101733.59;;;18.96;82.51
54948;BME280;41113;41.882;12.530;2023-10-08T01:50:22;101733.94;;;18.93;82.87
54948;BME280;41113;41.882;12.530;2023-10-08T01:52:48;101734.72;;;18.86;83.33
54948;BME280;41113;41.882;12.530;2023-10-08T01:55:13;101723.88;;;18.94;83.02
54948;BME280;41113;41.882;12.530;2023-10-08T01:57:43;101724.06;;;19.01;82.36
54948;BME280;41113;41.882;12.530;2023-10-08T02:00:08;101722.38;;;19.08;81.56
54948;BME280;41113;41.882;12.530;2023-10-08T02:02:34;101734.78;;;19.02;80.99
54948;BME280;41113;41.882;12.530;2023-10-08T02:04:59;101720.84;;;19.05;80.54
54948;BME280;41113;41.882;12.530;2023-10-08T02:07:24;101715.88;;;18.92;80.44
54948;BME280;41113;41.882;12.530;2023-10-08T02:09:50;101728.13;;;18.88;80.28
54948;BME280;41113;41.882;12.530;2023-10-08T02:12:15;101729.78;;;18.81;80.68
54948;BME280;41113;41.882;12.530;2023-10-08T02:14:40;101732.47;;;18.73;80.86
54948;BME280;41113;41.882;12.530;2023-10-08T02:17:06;101736.88;;;18.66;81.10
54948;BME280;41113;41.882;12.530;2023-10-08T02:19:34;101735.44;;;18.54;81.39
54948;BME280;41113;41.882;12.530;2023-10-08T02:22:01;101733.00;;;18.51;81.76
54948;BME280;41113;41.882;12.530;2023-10-08T02:24:30;101735.38;;;18.46;81.86
54948;BME280;41113;41.882;12.530;2023-10-08T02:26:55;101725.16;;;18.40;82.02
54948;BME280;41113;41.882;12.530;2023-10-08T02:29:23;101725.88;;;18.50;81.96
54948;BME280;41113;41.882;12.530;2023-10-08T02:31:49;101726.03;;;18.48;81.04
54948;BME280;41113;41.882;12.530;2023-10-08T02:34:15;101731.63;;;18.47;81.04
54948;BME280;41113;41.882;12.530;2023-10-08T02:36:40;101726.53;;;18.44;80.84
54948;BME280;41113;41.882;12.530;2023-10-08T02:39:06;101723.44;;;18.39;81.23
54948;BME280;41113;41.882;12.530;2023-10-08T02:41:41;101725.50;;;18.45;81.09
54948;BME280;41113;41.882;12.530;2023-10-08T02:44:07;101724.38;;;18.55;80.77
54948;BME280;41113;41.882;12.530;2023-10-08T02:46:37;101718.78;;;18.57;80.29
54948;BME280;41113;41.882;12.530;2023-10-08T02:49:02;101719.06;;;18.46;80.80
54948;BME280;41113;41.882;12.530;2023-10-08T02:51:29;101721.41;;;18.41;81.31
54948;BME280;41113;41.882;12.530;2023-10-08T02:53:54;101721.38;;;18.32;81.91
54948;BME280;41113;41.882;12.530;2023-10-08T02:56:19;101723.38;;;18.22;82.12
54948;BME280;41113;41.882;12.530;2023-10-08T02:58:47;101722.28;;;18.15;82.41
54948;BME280;41113;41.882;12.530;2023-10-08T03:01:12;101722.28;;;18.15;82.55
54948;BME280;41113;41.882;12.530;2023-10-08T03:03:41;101727.84;;;18.06;82.95
54948;BME280;41113;41.882;12.530;2023-10-08T03:06:11;101737.31;;;18.01;83.32
54948;BME280;41113;41.882;12.530;2023-10-08T03:08:39;101729.00;;;18.03;83.28
54948;BME280;41113;41.882;12.530;2023-10-08T03:11:08;101726.22;;;17.95;83.60
54948;BME280;41113;41.882;12.530;2023-10-08T03:13:41;101730.19;;;18.00;83.46
54948;BME280;41113;41.882;12.530;2023-10-08T03:16:06;101726.97;;;18.05;83.43
54948;BME280;41113;41.882;12.530;2023-10-08T03:18:38;101723.88;;;18.00;83.61
54948;BME280;41113;41.882;12.530;2023-10-08T03:21:07;101716.78;;;18.07;83.64
54948;BME280;41113;41.882;12.530;2023-10-08T03:23:46;101714.06;;;18.07;83.49
54948;BME280;41113;41.882;12.530;2023-10-08T03:26:12;101718.19;;;18.11;83.34
54948;BME280;41113;41.882;12.530;2023-10-08T03:28:58;101720.16;;;18.01;83.25
54948;BME280;41113;41.882;12.530;2023-10-08T03:31:24;101712.31;;;17.98;83.64
54948;BME280;41113;41.882;12.530;2023-10-08T03:34:12;101724.22;;;17.97;84.01
54948;BME280;41113;41.882;12.530;2023-10-08T03:36:43;101726.22;;;17.95;83.93
54948;BME280;41113;41.882;12.530;2023-10-08T03:39:11;101718.56;;;17.90;84.46
54948;BME280;41113;41.882;12.530;2023-10-08T03:41:40;101713.13;;;17.90;84.47
54948;BME280;41113;41.882;12.530;2023-10-08T03:44:06;101723.28;;;17.88;84.60
54948;BME280;41113;41.882;12.530;2023-10-08T03:46:37;101717.38;;;17.93;84.68
54948;BME280;41113;41.882;12.530;2023-10-08T03:49:15;101710.25;;;17.92;84.50
54948;BME280;41113;41.882;12.530;2023-10-08T03:51:50;101715.53;;;17.93;84.26
54948;BME280;41113;41.882;12.530;2023-10-08T03:54:21;101713.66;;;17.94;84.38
54948;BME280;41113;41.882;12.530;2023-10-08T03:57:00;101707.78;;;18.07;84.06
54948;BME280;41113;41.882;12.530;2023-10-08T03:59:26;101714.28;;;18.14;83.53
54948;BME280;41113;41.882;12.530;2023-10-08T04:01:59;101717.16;;;18.12;83.60
54948;BME280;41113;41.882;12.530;2023-10-08T04:04:35;101715.94;;;18.07;83.67
54948;BME280;41113;41.882;12.530;2023-10-08T04:07:36;101715.78;;;18.08;83.64
54948;BME280;41113;41.882;12.530;2023-10-08T04:10:09;101711.03;;;18.10;82.88
54948;BME280;41113;41.882;12.530;2023-10-08T04:12:54;101713.34;;;17.97;83.52
54948;BME280;41113;41.882;12.530;2023-10-08T04:15:20;101710.63;;;17.97;83.36
54948;BME280;41113;41.882;12.530;2023-10-08T04:17:45;101712.28;;;17.90;83.72
54948;BME280;41113;41.882;12.530;2023-10-08T04:20:16;101705.91;;;17.81;84.04
54948;BME280;41113;41.882;12.530;2023-10-08T04:23:20;101718.59;;;17.72;84.15
54948;BME280;41113;41.882;12.530;2023-10-08T04:25:48;101709.09;;;17.77;83.81
54948;BME280;41113;41.882;12.530;2023-10-08T04:28:19;101715.13;;;17.88;83.10
54948;BME280;41113;41.882;12.530;2023-10-08T04:30:45;101712.28;;;17.90;83.23
54948;BME280;41113;41.882;12.530;2023-10-08T04:33:12;101710.81;;;17.78;82.98
54948;BME280;41113;41.882;12.530;2023-10-08T04:35:39;101710.56;;;17.89;83.11
54948;BME280;41113;41.882;12.530;2023-10-08T04:38:17;101713.56;;;17.86;82.64
54948;BME280;41113;41.882;12.530;2023-10-08T04:40:47;101719.59;;;17.71;83.07
54948;BME280;41113;41.882;12.530;2023-10-08T04:43:17;101712.78;;;17.67;83.33
54948;BME280;41113;41.882;12.530;2023-10-08T04:45:50;101716.47;;;17.66;83.32
54948;BME280;41113;41.882;12.530;2023-10-08T04:48:15;101725.94;;;17.62;83.25
54948;BME280;41113;41.882;12.530;2023-10-08T04:50:45;101714.75;;;17.65;83.12
54948;BME280;41113;41.882;12.530;2023-10-08T04:53:10;101712.66;;;17.77;82.58
54948;BME280;41113;41.882;12.530;2023-10-08T04:55:35;101722.31;;;17.71;82.40
54948;BME280;41113;41.882;12.530;2023-10-08T04:58:06;101726.78;;;17.63;82.40
54948;BME280;41113;41.882;12.530;2023-10-08T05:00:37;101728.06;;;17.68;82.33
54948;BME280;41113;41.882;12.530;2023-10-08T05:03:19;101718.34;;;17.66;82.71
54948;BME280;41113;41.882;12.530;2023-10-08T05:05:45;101716.63;;;17.83;81.58
54948;BME280;41113;41.882;12.530;2023-10-08T05:08:29;101722.88;;;18.01;80.93
54948;BME280;41113;41.882;12.530;2023-10-08T05:10:58;101719.41;;;17.91;80.65
54948;BME280;41113;41.882;12.530;2023-10-08T05:13:40;101725.03;;;17.71;81.03
54948;BME280;41113;41.882;12.530;2023-10-08T05:16:20;101728.66;;;17.62;81.36
54948;BME280;41113;41.882;12.530;2023-10-08T05:19:02;101728.81;;;17.61;81.76
54948;BME280;41113;41.882;12.530;2023-10-08T05:21:50;101722.91;;;17.65;81.47
54948;BME280;41113;41.882;12.530;2023-10-08T05:24:30;101722.53;;;17.60;81.09
54948;BME280;41113;41.882;12.530;2023-10-08T05:27:03;101734.56;;;17.58;81.26
54948;BME280;41113;41.882;12.530;2023-10-08T05:29:54;101742.78;;;17.66;80.55
54948;BME280;41113;41.882;12.530;2023-10-08T05:32:38;101740.69;;;17.78;80.07
54948;BME280;41113;41.882;12.530;2023-10-08T05:35:11;101754.81;;;17.63;79.86
54948;BME280;41113;41.882;12.530;2023-10-08T05:37:57;101753.13;;;17.62;80.17
54948;BME280;41113;41.882;12.530;2023-10-08T05:40:38;101756.84;;;17.79;79.70
54948;BME280;41113;41.882;12.530;2023-10-08T05:43:23;101755.59;;;17.91;79.35
54948;BME280;41113;41.882;12.530;2023-10-08T05:46:12;101765.34;;;18.02;78.57
54948;BME280;41113;41.882;12.530;2023-10-08T05:48:50;101764.06;;;18.14;77.92
54948;BME280;41113;41.882;12.530;2023-10-08T05:51:31;101770.16;;;18.08;77.74
54948;BME280;41113;41.882;12.530;2023-10-08T05:54:19;101774.94;;;18.14;77.29
54948;BME280;41113;41.882;12.530;2023-10-08T05:57:04;101768.88;;;18.20;77.18
54948;BME280;41113;41.882;12.530;2023-10-08T05:59:50;101770.97;;;18.26;76.87
54948;BME280;41113;41.882;12.530;2023-10-08T06:02:21;101765.94;;;18.40;76.12
54948;BME280;41113;41.882;12.530;2023-10-08T06:05:07;101772.06;;;18.42;76.53
54948;BME280;41113;41.882;12.530;2023-10-08T06:07:49;101782.34;;;18.22;76.53
54948;BME280;41113;41.882;12.530;2023-10-08T06:10:18;101791.63;;;18.19;77.15
54948;BME280;41113;41.882;12.530;2023-10-08T06:12:55;101787.97;;;18.28;76.46
54948;BME280;41113;41.882;12.530;2023-10-08T06:15:40;101794.34;;;18.19;76.51
54948;BME280;41113;41.882;12.530;2023-10-08T06:18:12;101797.78;;;18.21;76.39
54948;BME280;41113;41.882;12.530;2023-10-08T06:20:39;101795.88;;;18.40;76.01
54948;BME280;41113;41.882;12.530;2023-10-08T06:23:08;101791.81;;;18.44;75.28
54948;BME280;41113;41.882;12.530;2023-10-08T06:25:33;101796.28;;;18.53;74.46
54948;BME280;41113;41.882;12.530;2023-10-08T06:28:09;101800.00;;;18.52;74.56
54948;BME280;41113;41.882;12.530;2023-10-08T06:30:35;101798.31;;;18.51;74.28
54948;BME280;41113;41.882;12.530;2023-10-08T06:33:00;101797.69;;;18.57;73.75
54948;BME280;41113;41.882;12.530;2023-10-08T06:35:26;101800.41;;;18.57;73.50
54948;BME280;41113;41.882;12.530;2023-10-08T06:37:53;101805.16;;;18.55;73.52
54948;BME280;41113;41.882;12.530;2023-10-08T06:40:25;101821.78;;;18.52;73.72
54948;BME280;41113;41.882;12.530;2023-10-08T06:43:03;101824.44;;;18.44;74.20
54948;BME280;41113;41.882;12.530;2023-10-08T06:45:36;101827.69;;;18.47;73.87
54948;BME280;41113;41.882;12.530;2023-10-08T06:48:02;101826.28;;;18.61;73.20
54948;BME280;41113;41.882;12.530;2023-10-08T06:50:31;101830.72;;;18.62;73.29
54948;BME280;41113;41.882;12.530;2023-10-08T06:52:57;101831.09;;;18.67;72.71
54948;BME280;41113;41.882;12.530;2023-10-08T06:55:23;101829.88;;;18.87;72.20
54948;BME280;41113;41.882;12.530;2023-10-08T06:57:52;101828.63;;;18.82;71.80
54948;BME280;41113;41.882;12.530;2023-10-08T07:00:17;101835.56;;;18.76;71.86
54948;BME280;41113;41.882;12.530;2023-10-08T07:03:02;101842.63;;;18.87;71.86
54948;BME280;41113;41.882;12.530;2023-10-08T07:05:27;101839.06;;;18.94;71.66
54948;BME280;41113;41.882;12.530;2023-10-08T07:07:54;101837.75;;;19.07;70.92
54948;BME280;41113;41.882;12.530;2023-10-08T07:10:21;101843.00;;;19.00;70.99
54948;BME280;41113;41.882;12.530;2023-10-08T07:12:48;101844.91;;;19.08;70.28
54948;BME280;41113;41.882;12.530;2023-10-08T07:15:13;101850.78;;;19.21;70.16
54948;BME280;41113;41.882;12.530;2023-10-08T07:17:39;101850.13;;;19.35;69.77
54948;BME280;41113;41.882;12.530;2023-10-08T07:20:08;101847.78;;;19.48;69.19
54948;BME280;41113;41.882;12.530;2023-10-08T07:22:46;101845.66;;;19.68;69.05
54948;BME280;41113;41.882;12.530;2023-10-08T07:25:13;101846.50;;;19.77;67.99
54948;BME280;41113;41.882;12.530;2023-10-08T07:27:40;101847.53;;;19.76;66.46
54948;BME280;41113;41.882;12.530;2023-10-08T07:30:06;101845.16;;;19.81;66.68
54948;BME280;41113;41.882;12.530;2023-10-08T07:32:35;101852.13;;;19.83;66.77
54948;BME280;41113;41.882;12.530;2023-10-08T07:35:03;101862.22;;;19.99;65.96
54948;BME280;41113;41.882;12.530;2023-10-08T07:37:49;101859.16;;;20.10;64.81
54948;BME280;41113;41.882;12.530;2023-10-08T07:40:15;101866.16;;;20.21;65.01
54948;BME280;41113;41.882;12.530;2023-10-08T07:42:41;101863.25;;;20.23;64.50
54948;BME280;41113;41.882;12.530;2023-10-08T07:45:06;101876.56;;;20.17;64.24
54948;BME280;41113;41.882;12.530;2023-10-08T07:47:32;101874.88;;;20.16;64.75
54948;BME280;41113;41.882;12.530;2023-10-08T07:49:57;101869.91;;;20.20;64.74
54948;BME280;41113;41.882;12.530;2023-10-08T07:52:23;101864.63;;;20.35;64.51
54948;BME280;41113;41.882;12.530;2023-10-08T07:54:49;101861.56;;;20.46;64.89
54948;BME280;41113;41.882;12.530;2023-10-08T07:57:14;101858.31;;;20.59;63.58
54948;BME280;41113;41.882;12.530;2023-10-08T07:59:51;101847.88;;;20.70;64.24
54948;BME280;41113;41.882;12.530;2023-10-08T08:02:19;101850.59;;;20.70;62.72
54948;BME280;41113;41.882;12.530;2023-10-08T08:04:50;101856.06;;;20.70;63.47
54948;BME280;41113;41.882;12.530;2023-10-08T08:07:18;101853.00;;;20.65;62.55
54948;BME280;41113;41.882;12.530;2023-10-08T08:09:47;101851.25;;;20.80;63.09
54948;BME280;41113;41.882;12.530;2023-10-08T08:12:38;101851.06;;;20.90;62.69
54948;BME280;41113;41.882;12.530;2023-10-08T08:15:03;101841.63;;;21.01;62.75
54948;BME280;41113;41.882;12.530;2023-10-08T08:17:43;101835.09;;;21.10;62.14
54948;BME280;41113;41.882;12.530;2023-10-08T08:20:08;101833.56;;;21.24;61.99
54948;BME280;41113;41.882;12.530;2023-10-08T08:22:43;101827.91;;;21.25;62.85
54948;BME280;41113;41.882;12.530;2023-10-08T08:25:15;101824.78;;;21.36;61.77
54948;BME280;41113;41.882;12.530;2023-10-08T08:27:41;101822.69;;;21.47;61.46
54948;BME280;41113;41.882;12.530;2023-10-08T08:30:09;101822.44;;;21.56;60.29
54948;BME280;41113;41.882;12.530;2023-10-08T08:32:41;101820.19;;;21.60;60.09
54948;BME280;41113;41.882;12.530;2023-10-08T08:35:09;101813.16;;;21.65;59.19
54948;BME280;41113;41.882;12.530;2023-10-08T08:37:35;101812.59;;;21.70;59.07
54948;BME280;41113;41.882;12.530;2023-10-08T08:40:06;101814.28;;;21.79;60.29
54948;BME280;41113;41.882;12.530;2023-10-08T08:42:34;101808.81;;;21.79;58.63
54948;BME280;41113;41.882;12.530;2023-10-08T08:45:06;101805.03;;;21.80;58.43
54948;BME280;41113;41.882;12.530;2023-10-08T08:47:37;101810.72;;;21.93;58.53
54948;BME280;41113;41.882;12.530;2023-10-08T08:50:06;101808.19;;;22.15;58.66
54948;BME280;41113;41.882;12.530;2023-10-08T08:52:36;101798.19;;;22.22;57.81
54948;BME280;41113;41.882;12.530;2023-10-08T08:55:03;101804.25;;;22.32;56.95
54948;BME280;41113;41.882;12.530;2023-10-08T08:57:31;101795.78;;;22.56;57.40
54948;BME280;41113;41.882;12.530;2023-10-08T08:59:56;101803.44;;;22.76;56.52
54948;BME280;41113;41.882;12.530;2023-10-08T09:02:23;101803.38;;;22.84;55.18
54948;BME280;41113;41.882;12.530;2023-10-08T09:04:48;101797.16;;;22.90;56.14
54948;BME280;41113;41.882;12.530;2023-10-08T09:07:14;101795.03;;;23.07;55.66
54948;BME280;41113;41.882;12.530;2023-10-08T09:09:39;101798.81;;;23.20;55.79
54948;BME280;41113;41.882;12.530;2023-10-08T09:12:04;101791.63;;;23.19;54.33
54948;BME280;41113;41.882;12.530;2023-10-08T09:14:30;101795.63;;;23.38;54.30
54948;BME280;41113;41.882;12.530;2023-10-08T09:16:57;101800.03;;;23.54;53.37
54948;BME280;41113;41.882;12.530;2023-10-08T09:19:25;101800.97;;;23.61;53.23
54948;BME280;41113;41.882;12.530;2023-10-08T09:22:01;101798.09;;;23.69;52.83
54948;BME280;41113;41.882;12.530;2023-10-08T09:24:29;101791.72;;;23.62;53.21
54948;BME280;41113;41.882;12.530;2023-10-08T09:26:54;101794.78;;;23.74;52.38
54948;BME280;41113;41.882;12.530;2023-10-08T09:29:23;101793.88;;;23.88;53.97
54948;BME280;41113;41.882;12.530;2023-10-08T09:31:55;101790.38;;;24.01;51.96
54948;BME280;41113;41.882;12.530;2023-10-08T09:34:21;101782.03;;;24.09;51.10
54948;BME280;41113;41.882;12.530;2023-10-08T09:36:47;101781.84;;;24.10;51.40
54948;BME280;41113;41.882;12.530;2023-10-08T09:39:12;101777.84;;;24.13;51.37
54948;BME280;41113;41.882;12.530;2023-10-08T09:41:53;101773.03;;;23.94;50.00
54948;BME280;41113;41.882;12.530;2023-10-08T09:44:19;101777.22;;;23.89;49.99
54948;BME280;41113;41.882;12.530;2023-10-08T09:46:44;101782.03;;;24.09;51.13
54948;BME280;41113;41.882;12.530;2023-10-08T09:49:13;101779.63;;;24.27;52.39
54948;BME280;41113;41.882;12.530;2023-10-08T09:51:39;101788.66;;;24.42;51.25
54948;BME280;41113;41.882;12.530;2023-10-08T09:54:06;101790.84;;;24.54;51.35
54948;BME280;41113;41.882;12.530;2023-10-08T09:56:35;101793.41;;;24.62;50.34
54948;BME280;41113;41.882;12.530;2023-10-08T09:59:01;101804.66;;;24.67;50.36
54948;BME280;41113;41.882;12.530;2023-10-08T10:01:26;101813.69;;;24.61;49.70
54948;BME280;41113;41.882;12.530;2023-10-08T10:03:52;101805.06;;;24.64;49.27
54948;BME280;41113;41.882;12.530;2023-10-08T10:06:18;101806.09;;;24.63;47.14
54948;BME280;41113;41.882;12.530;2023-10-08T10:08:44;101808.59;;;24.58;47.91
54948;BME280;41113;41.882;12.530;2023-10-08T10:11:09;101797.22;;;24.61;47.14
54948;BME280;41113;41.882;12.530;2023-10-08T10:13:42;101808.44;;;24.66;48.04
54948;BME280;41113;41.882;12.530;2023-10-08T10:16:10;101806.97;;;24.70;46.40
54948;BME280;41113;41.882;12.530;2023-10-08T10:18:35;101792.81;;;24.66;47.22
54948;BME280;41113;41.882;12.530;2023-10-08T10:21:24;101792.59;;;24.68;46.64
54948;BME280;41113;41.882;12.530;2023-10-08T10:23:46;101795.31;;;24.61;48.50
54948;BME280;41113;41.882;12.530;2023-10-08T10:26:31;101784.56;;;24.66;45.09
54948;BME280;41113;41.882;12.530;2023-10-08T10:31:34;101786.69;;;24.71;45.88
54948;BME280;41113;41.882;12.530;2023-10-08T10:34:04;101788.59;;;24.70;45.09
54948;BME280;41113;41.882;12.530;2023-10-08T10:36:29;101770.50;;;24.82;44.71
54948;BME280;41113;41.882;12.530;2023-10-08T10:38:56;101772.00;;;24.85;46.00
54948;BME280;41113;41.882;12.530;2023-10-08T10:41:24;101765.88;;;24.90;44.91
54948;BME280;41113;41.882;12.530;2023-10-08T10:43:49;101764.84;;;24.97;44.78
54948;BME280;41113;41.882;12.530;2023-10-08T10:46:18;101761.94;;;24.99;45.05
54948;BME280;41113;41.882;12.530;2023-10-08T10:48:56;101750.72;;;25.00;44.56
54948;BME280;41113;41.882;12.530;2023-10-08T10:51:42;101751.00;;;25.05;47.32
54948;BME280;41113;41.882;12.530;2023-10-08T10:54:07;101751.00;;;25.12;44.59
54948;BME280;41113;41.882;12.530;2023-10-08T10:56:34;101739.59;;;25.15;45.34
54948;BME280;41113;41.882;12.530;2023-10-08T10:59:06;101738.34;;;25.24;45.84
54948;BME280;41113;41.882;12.530;2023-10-08T11:01:49;101731.59;;;25.27;43.90
54948;BME280;41113;41.882;12.530;2023-10-08T11:04:18;101731.59;;;25.27;42.73
54948;BME280;41113;41.882;12.530;2023-10-08T11:06:48;101729.25;;;25.30;41.80
54948;BME280;41113;41.882;12.530;2023-10-08T11:09:15;101726.09;;;25.33;43.46
54948;BME280;41113;41.882;12.530;2023-10-08T11:11:42;101722.31;;;25.41;40.49
54948;BME280;41113;41.882;12.530;2023-10-08T11:14:11;101719.38;;;25.49;40.00
54948;BME280;41113;41.882;12.530;2023-10-08T11:16:42;101729.94;;;25.52;42.25
54948;BME280;41113;41.882;12.530;2023-10-08T11:19:08;101729.09;;;25.45;39.82
54948;BME280;41113;41.882;12.530;2023-10-08T11:21:47;101730.78;;;25.53;41.25
54948;BME280;41113;41.882;12.530;2023-10-08T11:24:12;101732.91;;;25.57;40.99
54948;BME280;41113;41.882;12.530;2023-10-08T11:26:50;101728.69;;;25.55;39.65
54948;BME280;41113;41.882;12.530;2023-10-08T11:29:31;101714.72;;;25.56;40.69
54948;BME280;41113;41.882;12.530;2023-10-08T11:31:57;101720.63;;;25.53;39.82
54948;BME280;41113;41.882;12.530;2023-10-08T11:34:31;101707.72;;;25.60;41.04
54948;BME280;41113;41.882;12.530;2023-10-08T11:37:01;101715.34;;;25.58;37.68
54948;BME280;41113;41.882;12.530;2023-10-08T11:39:35;101706.53;;;25.69;40.54
54948;BME280;41113;41.882;12.530;2023-10-08T11:42:10;101702.06;;;25.75;40.13
54948;BME280;41113;41.882;12.530;2023-10-08T11:44:54;101706.72;;;25.74;39.24
54948;BME280;41113;41.882;12.530;2023-10-08T11:47:20;101700.59;;;25.72;39.61
54948;BME280;41113;41.882;12.530;2023-10-08T11:49:46;101687.88;;;25.78;39.68
54948;BME280;41113;41.882;12.530;2023-10-08T11:52:34;101695.28;;;25.78;40.85
54948;BME280;41113;41.882;12.530;2023-10-08T11:55:01;101690.63;;;25.85;40.58
54948;BME280;41113;41.882;12.530;2023-10-08T11:57:26;101687.03;;;25.91;40.48
54948;BME280;41113;41.882;12.530;2023-10-08T11:59:51;101683.63;;;25.89;40.80
54948;BME280;41113;41.882;12.530;2023-10-08T12:02:19;101682.78;;;25.88;41.65
54948;BME280;41113;41.882;12.530;2023-10-08T12:04:45;101684.69;;;25.94;42.15
54948;BME280;41113;41.882;12.530;2023-10-08T12:07:12;101678.75;;;25.91;41.85
54948;BME280;41113;41.882;12.530;2023-10-08T12:09:42;101679.81;;;26.03;40.51
54948;BME280;41113;41.882;12.530;2023-10-08T12:12:07;101670.91;;;26.08;41.74
54948;BME280;41113;41.882;12.530;2023-10-08T12:14:35;101665.19;;;26.09;40.97
54948;BME280;41113;41.882;12.530;2023-10-08T12:17:00;101672.34;;;26.23;41.11
54948;BME280;41113;41.882;12.530;2023-10-08T12:19:36;101661.97;;;26.25;40.41
54948;BME280;41113;41.882;12.530;2023-10-08T12:22:01;101660.06;;;26.26;41.21
54948;BME280;41113;41.882;12.530;2023-10-08T12:24:27;101650.75;;;26.20;41.39
54948;BME280;41113;41.882;12.530;2023-10-08T12:26:53;101657.53;;;26.24;41.22
54948;BME280;41113;41.882;12.530;2023-10-08T12:29:18;101643.56;;;26.19;42.81
54948;BME280;41113;41.882;12.530;2023-10-08T12:31:44;101644.44;;;26.13;41.49
54948;BME280;41113;41.882;12.530;2023-10-08T12:34:12;101639.56;;;26.15;42.80
54948;BME280;41113;41.882;12.530;2023-10-08T12:36:38;101634.66;;;26.17;40.87
54948;BME280;41113;41.882;12.530;2023-10-08T12:39:03;101635.94;;;26.15;41.72
54948;BME280;41113;41.882;12.530;2023-10-08T12:41:35;101638.06;;;26.19;42.07
54948;BME280;41113;41.882;12.530;2023-10-08T12:44:04;101632.53;;;26.19;42.22
54948;BME280;41113;41.882;12.530;2023-10-08T12:46:32;101634.22;;;26.20;42.55
54948;BME280;41113;41.882;12.530;2023-10-08T12:48:58;101633.81;;;26.23;42.48
54948;BME280;41113;41.882;12.530;2023-10-08T12:51:27;101628.69;;;26.27;42.97
54948;BME280;41113;41.882;12.530;2023-10-08T12:53:57;101621.94;;;26.36;41.93
54948;BME280;41113;41.882;12.530;2023-10-08T12:56:31;101622.91;;;26.55;40.80
54948;BME280;41113;41.882;12.530;2023-10-08T12:59:09;101620.50;;;26.65;41.58